Time;durP1;ratioP1;P1;durP2;ratioP2;P2;SDS_P1;SDS_P2;PMS_P1;PMS_P2;Temp;Humidity;BMP_temperature;BMP_pressure;BME280_temperature;BME280_humidity;BME280_pressure;Samples;Min_cycle;Max_cycle;Signal;HPM_P1;HPM_P2
2022/03/31 00:01:43;;;;;;;4.67;0.90;;;4.00;99.90;;;;;;5056040;28;20045;-35
2022/03/31 00:04:09;;;;;;;3.13;0.53;;;4.10;99.90;;;;;;5049323;28;20507;-32
2022/03/31 00:06:34;;;;;;;4.37;0.70;;;4.00;99.90;;;;;;5043198;28;20059;-33
2022/03/31 00:09:00;;;;;;;5.10;0.60;;;4.00;99.90;;;;;;5052070;28;20400;-32
2022/03/31 00:11:26;;;;;;;5.73;0.87;;;4.00;99.90;;;;;;5052718;28;20053;-34
2022/03/31 00:13:51;;;;;;;5.77;1.00;;;4.00;99.90;;;;;;5053320;28;20050;-31
2022/03/31 00:16:17;;;;;;;2.23;0.77;;;4.00;99.90;;;;;;5043364;28;20135;-34
2022/03/31 00:18:43;;;;;;;2.77;0.70;;;4.00;99.90;;;;;;5049234;28;20121;-35
2022/03/31 00:21:08;;;;;;;3.83;0.90;;;4.00;99.90;;;;;;5054950;28;20504;-34
2022/03/31 00:23:37;;;;;;;4.03;0.80;;;4.00;99.90;;;;;;5053281;28;20048;-35
2022/03/31 00:26:03;;;;;;;7.10;0.80;;;4.00;99.90;;;;;;5052741;28;20079;-35
2022/03/31 00:28:29;;;;;;;6.03;1.00;;;4.00;99.90;;;;;;5037538;28;20041;-32
2022/03/31 00:30:55;;;;;;;5.30;1.00;;;3.90;99.90;;;;;;5053817;28;20064;-34
2022/03/31 00:33:21;;;;;;;4.90;1.10;;;4.00;99.90;;;;;;5052327;28;20127;-35
2022/03/31 00:35:46;;;;;;;5.93;0.97;;;3.90;99.90;;;;;;5049049;28;20500;-32
2022/03/31 00:38:12;;;;;;;5.73;1.20;;;3.90;99.90;;;;;;5037652;28;20488;-32
2022/03/31 00:40:38;;;;;;;4.93;1.03;;;3.90;99.90;;;;;;5053664;28;20550;-35
2022/03/31 00:43:04;;;;;;;4.87;0.90;;;3.90;99.90;;;;;;5058700;28;20516;-36
2022/03/31 00:45:34;;;;;;;3.83;0.87;;;3.90;99.90;;;;;;5052150;28;20048;-32
2022/03/31 00:48:00;;;;;;;3.23;1.07;;;3.90;99.90;;;;;;5037158;28;20052;-34
2022/03/31 00:50:26;;;;;;;4.47;0.93;;;3.90;99.90;;;;;;5053337;28;20523;-35
2022/03/31 00:52:52;;;;;;;4.40;1.00;;;3.90;99.90;;;;;;5052991;28;20055;-37
2022/03/31 00:55:19;;;;;;;5.90;1.03;;;4.00;99.90;;;;;;5059303;28;20071;-35
2022/03/31 00:57:46;;;;;;;5.70;0.93;;;3.80;99.90;;;;;;5039562;28;20055;-33
2022/03/31 01:00:14;;;;;;;4.60;0.83;;;3.80;99.90;;;;;;5051352;28;20052;-34
2022/03/31 01:02:43;;;;;;;3.47;0.87;;;3.80;99.90;;;;;;5049629;28;20197;-32
2022/03/31 01:05:09;;;;;;;3.87;1.10;;;3.90;99.90;;;;;;5051286;28;20418;-37
2022/03/31 01:07:37;;;;;;;4.83;0.83;;;3.90;99.90;;;;;;5035526;28;20570;-34
2022/03/31 01:10:04;;;;;;;6.60;1.00;;;3.80;99.90;;;;;;5056844;28;20052;-35
2022/03/31 01:12:30;;;;;;;6.13;0.80;;;3.80;99.90;;;;;;5053255;28;20570;-35
2022/03/31 01:15:17;;;;;;;3.83;0.87;;;3.80;99.90;;;;;;5048296;28;20396;-35
2022/03/31 01:17:46;;;;;;;5.70;0.90;;;3.80;99.90;;;;;;5035153;28;20048;-35
2022/03/31 01:20:19;;;;;;;5.93;0.97;;;3.80;99.90;;;;;;5052660;28;20041;-34
2022/03/31 01:22:46;;;;;;;5.17;0.70;;;3.80;99.90;;;;;;5052520;28;20436;-36
2022/03/31 01:25:12;;;;;;;8.27;1.07;;;3.80;99.90;;;;;;5056520;28;20040;-32
2022/03/31 01:27:41;;;;;;;5.40;0.77;;;3.80;99.90;;;;;;5033586;28;20053;-35
2022/03/31 01:30:13;;;;;;;4.87;0.80;;;3.80;99.90;;;;;;5051228;28;20413;-34
2022/03/31 01:32:44;;;;;;;8.23;0.87;;;3.70;99.90;;;;;;5056501;28;20055;-34
2022/03/31 01:35:10;;;;;;;3.35;0.75;;;3.70;99.90;;;;;;5051045;28;20045;-35
2022/03/31 01:37:35;;;;;;;3.47;0.70;;;3.70;99.90;;;;;;5038857;28;20115;-36
2022/03/31 01:40:01;;;;;;;4.93;0.80;;;3.70;99.90;;;;;;5032928;28;20049;-33
2022/03/31 01:42:28;;;;;;;6.33;0.83;;;3.70;99.90;;;;;;5046947;28;20124;-36
2022/03/31 01:44:54;;;;;;;3.20;0.60;;;3.70;99.90;;;;;;5051346;28;20518;-36
2022/03/31 01:47:20;;;;;;;5.50;0.97;;;3.70;99.90;;;;;;5036563;28;20276;-33
2022/03/31 01:49:46;;;;;;;4.00;0.87;;;3.60;99.90;;;;;;5051441;28;20040;-33
2022/03/31 01:52:12;;;;;;;2.43;1.00;;;3.80;99.90;;;;;;5050032;28;20055;-36
2022/03/31 01:54:37;;;;;;;2.27;0.90;;;3.60;99.90;;;;;;5051733;28;20025;-36
2022/03/31 01:57:04;;;;;;;3.83;1.27;;;3.60;99.90;;;;;;5033095;28;20500;-36
2022/03/31 01:59:43;;;;;;;4.30;1.53;;;3.60;99.90;;;;;;5052901;28;20057;-35
2022/03/31 02:02:11;;;;;;;4.47;1.53;;;3.60;99.90;;;;;;5051448;28;20156;-36
2022/03/31 02:04:38;;;;;;;7.93;1.90;;;3.60;99.90;;;;;;5051026;28;20663;-36
2022/03/31 02:07:04;;;;;;;4.83;2.07;;;3.60;99.90;;;;;;5034172;28;20486;-39
2022/03/31 02:09:30;;;;;;;4.17;2.37;;;3.60;99.90;;;;;;5055032;28;20040;-36
2022/03/31 02:11:57;;;;;;;5.63;3.03;;;3.60;99.90;;;;;;5047511;28;20392;-36
2022/03/31 02:14:23;;;;;;;5.93;2.90;;;3.60;99.90;;;;;;5047395;28;20123;-34
2022/03/31 02:16:49;;;;;;;7.93;3.23;;;3.60;99.90;;;;;;5035045;28;20415;-32
2022/03/31 02:19:15;;;;;;;6.37;3.30;;;3.60;99.90;;;;;;5051154;28;20048;-33
2022/03/31 02:21:43;;;;;;;4.30;3.40;;;3.60;99.90;;;;;;5050578;28;20045;-35
2022/03/31 02:24:09;;;;;;;5.73;3.40;;;3.50;99.90;;;;;;5049215;28;20626;-35
2022/03/31 02:26:35;;;;;;;6.80;3.57;;;3.50;99.90;;;;;;5039428;28;20338;-36
2022/03/31 02:29:03;;;;;;;9.63;4.47;;;3.60;99.90;;;;;;5047783;28;20504;-35
2022/03/31 02:31:30;;;;;;;8.60;4.37;;;3.60;99.90;;;;;;5048711;28;20127;-35
2022/03/31 02:33:56;;;;;;;7.33;4.20;;;3.60;99.90;;;;;;5051148;28;20529;-36
2022/03/31 02:36:23;;;;;;;6.00;4.23;;;3.60;99.90;;;;;;5041130;28;20044;-35
2022/03/31 02:38:49;;;;;;;8.10;4.77;;;3.70;99.90;;;;;;5045430;28;20052;-33
2022/03/31 02:41:15;;;;;;;5.30;3.93;;;3.60;99.90;;;;;;5051320;28;20522;-34
2022/03/31 02:43:40;;;;;;;7.70;5.27;;;3.60;99.90;;;;;;5051325;28;20125;-33
2022/03/31 02:46:06;;;;;;;7.37;4.43;;;3.60;99.90;;;;;;5051782;28;20048;-35
2022/03/31 02:48:32;;;;;;;7.53;5.27;;;3.70;99.90;;;;;;5036077;28;20097;-33
2022/03/31 02:50:58;;;;;;;7.97;5.00;;;3.60;99.90;;;;;;5048055;28;20684;-32
2022/03/31 02:56:08;;;;;;;7.37;4.97;;;3.60;99.90;;;;;;5046662;28;20051;-35
2022/03/31 02:58:34;;;;;;;6.27;5.00;;;3.60;99.90;;;;;;5036144;28;20516;-33
2022/03/31 03:01:00;;;;;;;7.73;5.00;;;3.60;99.90;;;;;;5054078;28;20056;-33
2022/03/31 03:03:29;;;;;;;6.43;4.63;;;3.60;99.90;;;;;;5045292;28;20098;-33
2022/03/31 03:05:54;;;;;;;5.73;3.60;;;3.60;99.90;;;;;;5050692;28;20056;-30
2022/03/31 03:08:20;;;;;;;6.40;3.67;;;3.60;99.90;;;;;;5033609;28;20388;-34
2022/03/31 03:10:46;;;;;;;8.10;3.30;;;3.60;99.90;;;;;;5049933;28;20411;-31
2022/03/31 03:13:14;;;;;;;4.33;3.03;;;3.50;99.90;;;;;;5052198;28;20037;-32
2022/03/31 03:15:40;;;;;;;4.70;3.40;;;3.50;99.90;;;;;;5049963;28;20151;-33
2022/03/31 03:18:08;;;;;;;4.73;3.33;;;3.50;99.90;;;;;;5033359;28;20124;-34
2022/03/31 03:20:34;;;;;;;4.73;3.23;;;3.50;99.90;;;;;;5051947;28;20684;-31
2022/03/31 03:22:59;;;;;;;5.77;2.93;;;3.40;99.90;;;;;;5047273;28;20048;-32
2022/03/31 03:25:25;;;;;;;3.87;2.53;;;3.40;99.90;;;;;;5051105;28;20106;-30
2022/03/31 03:27:51;;;;;;;3.60;2.03;;;3.40;99.90;;;;;;5031033;28;20542;-31
2022/03/31 03:30:18;;;;;;;4.03;2.20;;;3.40;99.90;;;;;;5050128;28;20482;-30
2022/03/31 03:32:45;;;;;;;2.83;2.20;;;3.30;99.90;;;;;;5046893;28;20045;-33
2022/03/31 03:35:13;;;;;;;3.70;2.47;;;3.30;99.90;;;;;;5047144;28;20041;-30
2022/03/31 03:37:39;;;;;;;3.93;2.33;;;3.20;99.90;;;;;;5031371;28;20731;-30
2022/03/31 03:40:06;;;;;;;3.87;2.40;;;3.20;99.90;;;;;;5045831;28;20342;-30
2022/03/31 03:42:32;;;;;;;3.43;2.00;;;3.20;99.90;;;;;;5051712;28;20507;-33
2022/03/31 03:44:59;;;;;;;3.47;2.37;;;3.10;99.90;;;;;;5051128;28;20045;-33
2022/03/31 03:47:25;;;;;;;2.73;2.10;;;3.10;99.90;;;;;;5034714;28;20101;-33
2022/03/31 03:49:51;;;;;;;4.63;1.93;;;3.10;99.90;;;;;;5051586;28;20173;-32
2022/03/31 03:52:18;;;;;;;3.07;2.27;;;3.00;99.90;;;;;;5052504;28;20044;-30
2022/03/31 03:54:43;;;;;;;4.50;2.40;;;3.00;99.90;;;;;;5049617;28;20120;-34
2022/03/31 03:57:09;;;;;;;3.53;2.47;;;3.00;99.90;;;;;;5027854;28;20522;-30
2022/03/31 03:59:35;;;;;;;3.53;2.97;;;2.90;99.90;;;;;;5051814;28;20568;-30
2022/03/31 04:02:02;;;;;;;4.80;3.53;;;2.90;99.90;;;;;;5048800;28;20121;-30
2022/03/31 04:04:29;;;;;;;7.73;5.20;;;2.90;99.90;;;;;;5049833;28;20047;-29
2022/03/31 04:06:56;;;;;;;7.43;6.00;;;2.90;99.90;;;;;;5033466;28;20053;-31
2022/03/31 04:09:23;;;;;;;6.67;5.40;;;2.80;99.90;;;;;;5048015;28;20397;-33
2022/03/31 04:11:48;;;;;;;8.13;5.97;;;2.80;99.90;;;;;;5049013;28;20553;-31
2022/03/31 04:14:15;;;;;;;5.77;5.17;;;2.70;99.90;;;;;;5038613;28;20040;-30
2022/03/31 04:16:40;;;;;;;5.57;4.60;;;2.70;99.90;;;;;;5034117;28;20593;-31
2022/03/31 04:19:09;;;;;;;5.20;3.67;;;2.60;99.90;;;;;;5048458;28;20054;-30
2022/03/31 04:21:36;;;;;;;6.37;3.80;;;2.60;99.90;;;;;;5051140;28;20090;-32
2022/03/31 04:24:03;;;;;;;5.80;3.60;;;2.60;99.90;;;;;;5049386;28;20080;-31
2022/03/31 04:26:29;;;;;;;4.40;3.43;;;2.60;99.90;;;;;;5038797;28;20366;-31
2022/03/31 04:28:55;;;;;;;3.60;2.90;;;2.50;99.90;;;;;;5045980;28;20053;-29
2022/03/31 04:31:21;;;;;;;4.97;2.97;;;2.50;99.90;;;;;;5049306;28;20539;-32
2022/03/31 04:33:47;;;;;;;4.43;2.97;;;2.40;99.90;;;;;;5047678;28;20072;-30
2022/03/31 04:36:12;;;;;;;4.67;2.70;;;2.40;99.90;;;;;;5040184;28;20037;-32
2022/03/31 04:38:38;;;;;;;6.03;2.63;;;2.40;99.90;;;;;;5040508;28;20037;-31
2022/03/31 04:41:04;;;;;;;6.17;2.20;;;2.40;99.90;;;;;;5050829;28;20121;-29
2022/03/31 04:43:30;;;;;;;6.83;2.57;;;2.40;99.90;;;;;;5044199;28;20051;-32
2022/03/31 04:45:55;;;;;;;4.57;2.03;;;2.40;99.90;;;;;;5052623;28;20060;-29
2022/03/31 04:48:21;;;;;;;6.40;2.37;;;2.50;99.90;;;;;;5031480;28;20071;-30
2022/03/31 04:50:47;;;;;;;6.17;2.17;;;2.30;99.90;;;;;;5048372;28;20048;-30
2022/03/31 04:53:14;;;;;;;3.83;2.03;;;2.30;99.90;;;;;;5052670;28;20047;-33
2022/03/31 04:55:40;;;;;;;5.63;2.03;;;2.30;99.90;;;;;;5050486;28;20165;-31
2022/03/31 04:58:06;;;;;;;5.03;2.30;;;2.30;99.90;;;;;;5033834;28;20423;-33
2022/03/31 05:00:32;;;;;;;5.47;2.13;;;2.30;99.90;;;;;;5055649;28;20044;-33
2022/03/31 05:02:59;;;;;;;5.30;2.20;;;2.30;99.90;;;;;;5051286;28;20052;-33
2022/03/31 05:05:26;;;;;;;4.00;2.40;;;2.30;99.90;;;;;;5051641;28;20106;-31
2022/03/31 05:07:51;;;;;;;4.03;2.30;;;2.30;99.90;;;;;;5036042;28;20549;-33
2022/03/31 05:10:18;;;;;;;6.30;2.37;;;2.30;99.90;;;;;;5050087;28;20044;-30
2022/03/31 05:12:44;;;;;;;5.73;2.37;;;2.30;99.90;;;;;;5048522;28;20045;-33
2022/03/31 05:15:11;;;;;;;5.40;2.20;;;2.30;99.90;;;;;;5052684;28;20313;-32
2022/03/31 05:17:38;;;;;;;4.17;2.53;;;2.30;99.90;;;;;;5037927;28;20037;-31
2022/03/31 05:20:09;;;;;;;4.90;2.60;;;2.30;99.90;;;;;;5051719;28;20044;-32
2022/03/31 05:22:35;;;;;;;5.00;2.67;;;2.30;99.90;;;;;;5053802;28;20041;-31
2022/03/31 05:25:01;;;;;;;6.20;3.03;;;2.40;99.90;;;;;;5045268;28;20110;-32
2022/03/31 05:27:27;;;;;;;3.43;3.00;;;2.40;99.90;;;;;;5027230;28;20045;-30
2022/03/31 05:29:53;;;;;;;7.30;3.83;;;2.40;99.90;;;;;;5042136;28;20104;-30
2022/03/31 05:32:19;;;;;;;8.03;4.50;;;2.40;99.90;;;;;;5044030;28;20131;-34
2022/03/31 05:34:44;;;;;;;7.13;4.67;;;2.40;99.90;;;;;;5042620;28;20045;-33
2022/03/31 05:37:11;;;;;;;6.93;5.00;;;2.50;99.90;;;;;;5035227;28;20036;-31
2022/03/31 05:39:37;;;;;;;12.20;6.13;;;2.40;99.90;;;;;;5048252;28;20412;-32
2022/03/31 05:42:03;;;;;;;8.53;5.33;;;2.50;99.90;;;;;;5052111;28;20055;-33
2022/03/31 05:44:29;;;;;;;5.97;4.80;;;2.50;99.90;;;;;;5050923;28;20480;-33
2022/03/31 05:46:55;;;;;;;7.67;4.97;;;2.50;99.90;;;;;;5035233;28;20126;-32
2022/03/31 05:49:20;;;;;;;8.10;5.07;;;2.50;99.90;;;;;;5048265;28;20102;-32
2022/03/31 05:51:46;;;;;;;8.87;5.40;;;2.50;99.90;;;;;;5050024;28;20137;-31
2022/03/31 05:54:12;;;;;;;7.50;5.10;;;2.60;99.90;;;;;;5052186;28;20052;-30
2022/03/31 05:56:37;;;;;;;4.67;3.87;;;2.60;99.90;;;;;;5033893;28;20069;-32
2022/03/31 05:59:04;;;;;;;4.23;3.80;;;2.60;99.90;;;;;;5047178;28;20048;-31
2022/03/31 06:01:30;;;;;;;4.60;3.80;;;2.60;99.90;;;;;;5053737;28;20075;-34
2022/03/31 06:03:56;;;;;;;4.07;3.67;;;2.60;99.90;;;;;;5049562;28;20476;-30
2022/03/31 06:06:23;;;;;;;4.50;4.10;;;2.60;99.90;;;;;;5043638;28;20045;-34
2022/03/31 06:08:49;;;;;;;4.87;4.13;;;2.70;99.90;;;;;;5046916;28;20756;-31
2022/03/31 06:11:15;;;;;;;4.33;3.93;;;2.60;99.90;;;;;;5050985;28;20115;-30
2022/03/31 06:13:41;;;;;;;4.53;4.07;;;2.60;99.90;;;;;;5049235;28;20254;-33
2022/03/31 06:16:06;;;;;;;4.67;4.27;;;2.60;99.90;;;;;;5047295;28;20051;-32
2022/03/31 06:18:32;;;;;;;5.07;4.37;;;2.60;99.90;;;;;;5038846;28;20486;-31
2022/03/31 06:20:58;;;;;;;5.00;4.50;;;2.70;99.90;;;;;;5051090;28;20188;-32
2022/03/31 06:23:25;;;;;;;4.83;4.33;;;2.70;99.90;;;;;;5050324;28;20083;-32
2022/03/31 06:25:51;;;;;;;5.33;4.80;;;2.60;99.90;;;;;;5050025;28;20154;-34
2022/03/31 06:28:17;;;;;;;4.30;3.90;;;2.70;99.90;;;;;;5038801;28;20045;-30
2022/03/31 06:30:43;;;;;;;5.23;4.73;;;2.70;99.90;;;;;;5043821;28;20068;-32
2022/03/31 06:33:08;;;;;;;4.83;4.40;;;2.50;99.90;;;;;;5044995;28;20660;-31
2022/03/31 06:35:34;;;;;;;5.17;4.67;;;2.70;99.90;;;;;;5049856;28;20044;-31
2022/03/31 06:38:01;;;;;;;5.90;5.30;;;2.70;99.90;;;;;;5034220;28;20037;-32
2022/03/31 06:40:30;;;;;;;5.33;4.60;;;2.70;99.90;;;;;;5044318;28;20048;-35
2022/03/31 06:42:56;;;;;;;6.03;5.20;;;2.70;99.90;;;;;;5041721;28;20401;-31
2022/03/31 06:45:23;;;;;;;6.23;5.33;;;2.70;99.90;;;;;;5049428;28;20044;-32
2022/03/31 06:47:49;;;;;;;7.80;5.87;;;2.70;99.90;;;;;;5028894;28;20407;-35
2022/03/31 06:50:15;;;;;;;6.47;5.50;;;2.70;99.90;;;;;;5048167;28;20037;-33
2022/03/31 06:52:40;;;;;;;7.17;5.43;;;2.70;99.90;;;;;;5043435;28;20039;-33
2022/03/31 06:55:07;;;;;;;6.57;5.93;;;2.70;99.90;;;;;;5044368;28;20321;-31
2022/03/31 06:57:32;;;;;;;5.90;5.27;;;2.80;99.90;;;;;;5031322;28;20495;-33
2022/03/31 06:59:58;;;;;;;6.10;5.20;;;2.80;99.90;;;;;;5047127;28;20118;-33
2022/03/31 07:02:24;;;;;;;6.33;5.67;;;2.80;99.90;;;;;;5049899;28;20543;-32
2022/03/31 07:04:50;;;;;;;6.23;5.63;;;2.80;99.90;;;;;;5042076;28;20493;-32
2022/03/31 07:07:15;;;;;;;6.40;5.60;;;2.80;99.90;;;;;;5031145;28;20040;-32
2022/03/31 07:09:41;;;;;;;7.37;6.00;;;2.80;99.90;;;;;;5052341;28;20539;-31
2022/03/31 07:12:07;;;;;;;8.37;6.07;;;2.80;99.90;;;;;;5048409;28;20454;-30
2022/03/31 07:14:36;;;;;;;7.43;6.20;;;2.80;99.90;;;;;;5052009;28;20129;-30
2022/03/31 07:17:02;;;;;;;7.40;6.60;;;2.80;99.90;;;;;;5037546;28;20387;-33
2022/03/31 07:19:27;;;;;;;8.70;7.37;;;2.80;99.90;;;;;;5044174;28;20500;-34
2022/03/31 07:21:53;;;;;;;9.20;7.60;;;2.80;99.90;;;;;;5050093;28;20167;-33
2022/03/31 07:24:19;;;;;;;8.20;6.90;;;2.80;99.90;;;;;;5046495;28;20078;-33
2022/03/31 07:26:44;;;;;;;8.73;7.17;;;2.80;99.90;;;;;;5030597;28;20095;-32
2022/03/31 07:29:10;;;;;;;9.40;7.80;;;2.80;99.90;;;;;;5047610;28;20044;-33
2022/03/31 07:31:36;;;;;;;7.93;7.13;;;2.80;99.90;;;;;;5046445;28;20064;-34
2022/03/31 07:34:02;;;;;;;9.27;7.40;;;2.90;99.90;;;;;;5047324;28;20185;-32
2022/03/31 07:36:27;;;;;;;8.60;7.63;;;2.90;99.90;;;;;;5035630;28;20484;-33
2022/03/31 07:38:53;;;;;;;8.40;7.50;;;2.90;99.90;;;;;;5044272;28;20044;-33
2022/03/31 07:41:19;;;;;;;7.60;6.53;;;2.90;99.90;;;;;;5040250;28;20044;-33
2022/03/31 07:43:45;;;;;;;8.27;7.00;;;2.90;99.90;;;;;;5051148;28;20240;-33
2022/03/31 07:46:11;;;;;;;8.80;6.10;;;2.90;99.90;;;;;;5042952;28;20069;-34
2022/03/31 07:48:37;;;;;;;8.13;6.97;;;2.90;99.90;;;;;;5039966;28;20052;-36
2022/03/31 07:51:04;;;;;;;8.13;6.87;;;2.90;99.90;;;;;;5049686;28;20546;-34
2022/03/31 07:53:33;;;;;;;7.90;7.07;;;3.00;99.90;;;;;;5049021;28;20491;-33
2022/03/31 07:56:03;;;;;;;8.50;7.10;;;3.00;99.90;;;;;;5050437;28;20456;-34
2022/03/31 07:58:29;;;;;;;7.87;7.07;;;3.00;99.90;;;;;;5032463;28;20084;-33
2022/03/31 08:00:55;;;;;;;7.87;7.03;;;3.00;99.90;;;;;;5046946;28;20049;-32
2022/03/31 08:03:22;;;;;;;9.43;7.80;;;3.00;99.90;;;;;;5047488;28;20051;-32
2022/03/31 08:05:49;;;;;;;8.73;7.63;;;3.00;99.90;;;;;;5045724;28;20424;-31
2022/03/31 08:08:15;;;;;;;9.47;7.80;;;3.00;99.90;;;;;;5033846;28;20041;-31
2022/03/31 08:10:41;;;;;;;9.70;8.10;;;3.00;99.90;;;;;;5047135;28;20137;-31
2022/03/31 08:13:08;;;;;;;9.43;8.43;;;3.00;99.90;;;;;;5048345;28;20518;-32
2022/03/31 08:15:34;;;;;;;9.43;8.03;;;2.90;99.90;;;;;;5047612;28;20359;-32
2022/03/31 08:18:00;;;;;;;11.57;9.10;;;3.00;99.90;;;;;;5033168;28;20334;-33
2022/03/31 08:20:26;;;;;;;9.00;7.93;;;3.00;99.90;;;;;;5050347;28;20076;-32
2022/03/31 08:22:52;;;;;;;11.03;8.40;;;3.00;99.90;;;;;;5053130;28;20103;-32
2022/03/31 08:25:18;;;;;;;9.97;7.30;;;3.00;99.90;;;;;;5053026;28;20050;-32
2022/03/31 08:27:45;;;;;;;7.93;7.00;;;3.00;99.90;;;;;;5037217;28;20056;-32
2022/03/31 08:30:16;;;;;;;7.57;6.30;;;3.00;99.90;;;;;;5051796;28;20053;-32
2022/03/31 08:32:43;;;;;;;7.57;6.60;;;3.00;99.90;;;;;;5050965;28;20480;-35
2022/03/31 08:35:10;;;;;;;8.73;6.37;;;3.00;99.90;;;;;;5055609;28;20578;-32
2022/03/31 08:37:37;;;;;;;7.57;6.13;;;3.00;99.90;;;;;;5035900;28;20086;-32
2022/03/31 08:40:06;;;;;;;8.73;6.53;;;3.00;99.90;;;;;;5050961;28;20132;-33
2022/03/31 08:42:31;;;;;;;10.00;6.90;;;3.00;99.90;;;;;;5055166;28;20495;-32
2022/03/31 08:44:58;;;;;;;9.00;7.60;;;3.00;99.90;;;;;;5051838;28;20092;-33
2022/03/31 08:47:26;;;;;;;11.37;8.90;;;3.00;99.90;;;;;;5034498;28;20052;-33
2022/03/31 08:49:54;;;;;;;11.13;8.93;;;3.00;99.90;;;;;;5052746;28;20503;-33
2022/03/31 08:52:20;;;;;;;11.20;8.47;;;3.00;99.90;;;;;;5048815;28;20040;-31
2022/03/31 08:54:45;;;;;;;10.10;7.93;;;3.00;99.90;;;;;;5052081;28;20775;-35
2022/03/31 08:57:11;;;;;;;9.70;7.70;;;3.00;99.90;;;;;;5031163;28;20041;-32
2022/03/31 08:59:37;;;;;;;9.87;8.00;;;3.00;99.90;;;;;;5051866;28;20411;-31
2022/03/31 09:02:03;;;;;;;9.57;7.80;;;3.00;99.90;;;;;;5055367;28;20049;-37
2022/03/31 09:04:28;;;;;;;8.57;7.17;;;3.00;99.90;;;;;;5056651;28;20393;-32
2022/03/31 09:07:08;;;;;;;7.73;6.93;;;2.90;99.90;;;;;;5035524;28;20059;-31
2022/03/31 09:09:51;;;;;;;8.80;6.47;;;2.90;99.90;;;;;;5048021;28;20079;-31
2022/03/31 09:12:17;;;;;;;8.17;6.67;;;2.80;99.90;;;;;;5047374;28;20123;-31
2022/03/31 09:14:43;;;;;;;7.67;6.07;;;2.80;99.90;;;;;;5051378;28;20051;-31
2022/03/31 09:17:16;;;;;;;7.37;6.20;;;2.80;99.90;;;;;;5032817;28;20072;-31
2022/03/31 09:19:45;;;;;;;7.00;6.00;;;2.70;99.90;;;;;;5053259;28;20063;-31
2022/03/31 09:22:10;;;;;;;8.07;6.30;;;2.70;99.90;;;;;;5048941;28;20091;-30
2022/03/31 09:24:36;;;;;;;8.17;6.00;;;2.60;99.90;;;;;;5047699;28;20583;-33
2022/03/31 09:27:04;;;;;;;5.93;5.30;;;2.60;99.90;;;;;;5036210;28;20579;-30
2022/03/31 09:29:31;;;;;;;6.17;4.70;;;2.60;99.90;;;;;;5046907;28;20059;-30
2022/03/31 09:32:10;;;;;;;6.00;4.77;;;2.50;99.90;;;;;;5049441;28;20064;-31
2022/03/31 09:34:41;;;;;;;6.80;5.17;;;2.50;99.90;;;;;;5056590;28;20048;-32
2022/03/31 09:37:07;;;;;;;6.20;5.15;;;2.50;99.90;;;;;;5033261;28;20037;-32
2022/03/31 09:39:33;;;;;;;6.47;5.10;;;2.40;99.90;;;;;;5049940;28;20044;-32
2022/03/31 09:41:58;;;;;;;8.33;4.73;;;2.40;99.90;;;;;;5051613;28;20056;-33
2022/03/31 09:44:25;;;;;;;6.03;4.80;;;2.30;99.90;;;;;;5032256;28;20040;-30
2022/03/31 09:46:52;;;;;;;8.17;4.80;;;2.30;99.90;;;;;;5035488;28;20094;-30
2022/03/31 09:49:23;;;;;;;5.73;4.87;;;2.20;99.90;;;;;;5054927;28;20036;-30
2022/03/31 09:52:01;;;;;;;4.07;3.67;;;2.10;99.90;;;;;;5049210;28;20053;-31
2022/03/31 09:54:32;;;;;;;6.53;5.20;;;2.00;99.90;;;;;;5048248;28;20132;-32
2022/03/31 09:56:59;;;;;;;;;;;1.90;99.90;;;;;;5036591;28;20091;-32
2022/03/31 09:59:41;;;;;;;8.03;6.53;;;1.90;99.90;;;;;;5047581;28;19924;-31
2022/03/31 10:02:08;;;;;;;7.93;6.23;;;1.80;99.90;;;;;;5050735;28;20526;-32
2022/03/31 10:04:34;;;;;;;7.07;5.53;;;1.70;99.90;;;;;;5055194;28;20047;-31
2022/03/31 10:07:02;;;;;;;7.77;5.50;;;1.60;99.90;;;;;;5036934;28;20132;-30
2022/03/31 10:09:28;;;;;;;7.50;5.53;;;1.60;99.90;;;;;;5048581;28;20044;-35
2022/03/31 10:12:26;;;;;;;7.70;5.50;;;1.50;99.90;;;;;;5047660;28;20117;-32
2022/03/31 10:15:00;;;;;;;8.87;5.87;;;1.40;99.90;;;;;;5049965;28;20144;-30
2022/03/31 10:17:28;;;;;;;6.13;5.17;;;1.30;99.90;;;;;;5032830;28;20052;-34
2022/03/31 10:20:05;;;;;;;6.17;5.30;;;1.30;99.90;;;;;;5048106;28;20181;-35
2022/03/31 10:25:15;;;;;;;8.50;6.07;;;1.20;99.90;;;;;;5051305;28;20146;-31
2022/03/31 10:27:45;;;;;;;8.77;6.33;;;1.10;99.90;;;;;;5038487;28;20052;-32
2022/03/31 10:30:13;;;;;;;9.43;6.33;;;1.00;99.90;;;;;;5054570;28;20057;-34
2022/03/31 10:32:55;;;;;;;8.30;6.50;;;0.90;99.90;;;;;;5054104;28;20040;-31
2022/03/31 10:35:30;;;;;;;8.07;6.50;;;0.80;99.90;;;;;;5050749;28;20049;-31
2022/03/31 10:37:58;;;;;;;8.70;6.13;;;0.80;99.90;;;;;;4977931;28;20268;-30
2022/03/31 10:40:33;;;;;;;7.93;5.70;;;0.80;99.90;;;;;;5051414;28;20089;-33
2022/03/31 10:42:59;;;;;;;7.17;5.90;;;0.70;99.90;;;;;;5047806;28;20084;-33
2022/03/31 10:45:39;;;;;;;9.33;5.83;;;0.60;99.90;;;;;;5053656;28;20127;-34
2022/03/31 10:48:26;;;;;;;8.73;6.03;;;0.60;99.90;;;;;;5034831;28;20497;-35
2022/03/31 10:51:04;;;;;;;9.67;6.27;;;0.60;99.90;;;;;;5049446;28;20412;-34
2022/03/31 10:53:31;;;;;;;10.27;7.03;;;0.50;99.90;;;;;;5042797;28;20045;-32
2022/03/31 10:55:58;;;;;;;8.57;6.33;;;0.40;99.90;;;;;;5049700;28;20052;-30
2022/03/31 10:58:28;;;;;;;7.90;6.33;;;0.50;99.90;;;;;;5026413;28;20122;-34
2022/03/31 11:01:00;;;;;;;8.47;6.13;;;0.60;99.90;;;;;;5046854;28;20254;-35
2022/03/31 11:03:26;;;;;;;7.83;6.23;;;0.50;99.90;;;;;;5042902;28;20678;-38
2022/03/31 11:05:53;;;;;;;10.33;6.40;;;0.50;99.90;;;;;;5047327;28;20079;-36
2022/03/31 11:08:18;;;;;;;8.97;6.30;;;0.50;99.90;;;;;;5034169;28;20055;-36
2022/03/31 11:10:50;;;;;;;8.83;5.80;;;0.50;99.90;;;;;;5048155;28;20044;-33
2022/03/31 11:13:18;;;;;;;9.85;6.32;;;0.50;99.90;;;;;;5044253;28;20044;-38
2022/03/31 11:15:54;;;;;;;9.73;6.43;;;0.50;99.90;;;;;;5054522;28;20488;-35
2022/03/31 11:18:21;;;;;;;9.60;6.40;;;0.40;99.90;;;;;;5038393;28;20037;-33
2022/03/31 11:20:56;;;;;;;8.63;6.03;;;0.40;99.90;;;;;;5049393;28;20100;-35
2022/03/31 11:23:22;;;;;;;9.07;6.43;;;0.40;99.90;;;;;;5039618;28;20174;-35
2022/03/31 11:25:47;;;;;;;8.63;6.13;;;0.50;99.90;;;;;;5045972;28;20466;-34
2022/03/31 11:28:14;;;;;;;9.57;6.47;;;0.50;99.90;;;;;;5034758;28;20072;-31
2022/03/31 11:30:43;;;;;;;9.57;6.97;;;0.50;99.90;;;;;;5049628;28;20110;-31
2022/03/31 11:33:13;;;;;;;11.17;6.90;;;0.50;99.90;;;;;;5047211;28;20143;-31
2022/03/31 11:35:39;;;;;;;8.83;6.57;;;0.40;99.90;;;;;;5050580;28;20125;-31
2022/03/31 11:38:10;;;;;;;7.73;5.97;;;0.40;99.90;;;;;;5030479;28;20471;-35
2022/03/31 11:40:44;;;;;;;9.23;6.70;;;0.40;99.90;;;;;;5047489;28;20055;-33
2022/03/31 11:43:14;;;;;;;9.33;6.23;;;0.40;99.90;;;;;;5043131;28;20107;-36
2022/03/31 11:45:43;;;;;;;11.93;6.47;;;0.40;99.90;;;;;;5047442;28;20041;-33
2022/03/31 11:48:13;;;;;;;11.07;6.30;;;0.40;99.90;;;;;;5026655;28;20114;-36
2022/03/31 11:50:50;;;;;;;7.83;5.70;;;0.40;99.90;;;;;;5048045;28;20094;-37
2022/03/31 11:53:23;;;;;;;8.47;6.57;;;0.40;99.90;;;;;;5051090;28;20135;-38
2022/03/31 11:55:59;;;;;;;9.67;5.87;;;0.40;99.90;;;;;;5049851;28;20047;-33
2022/03/31 11:58:26;;;;;;;12.70;7.30;;;0.40;99.90;;;;;;5036730;28;20537;-36
2022/03/31 12:00:52;;;;;;;13.13;7.50;;;0.30;99.90;;;;;;5051307;28;20135;-35
2022/03/31 12:03:18;;;;;;;16.20;7.50;;;0.30;99.90;;;;;;5046300;28;20045;-33
2022/03/31 12:05:54;;;;;;;8.80;6.70;;;0.30;99.90;;;;;;5036645;28;20231;-35
2022/03/31 12:08:20;;;;;;;9.83;6.73;;;0.20;99.90;;;;;;5033792;28;20086;-34
2022/03/31 12:10:49;;;;;;;8.73;6.37;;;0.20;99.90;;;;;;5046267;28;20048;-33
2022/03/31 12:13:15;;;;;;;10.13;7.57;;;0.20;99.90;;;;;;5051816;28;20087;-35
2022/03/31 12:15:41;;;;;;;11.57;7.47;;;0.10;99.90;;;;;;5051568;28;20048;-34
2022/03/31 12:18:12;;;;;;;10.33;7.40;;;0.10;99.90;;;;;;5035764;28;20429;-32
2022/03/31 12:20:38;;;;;;;5.65;4.53;;;0.00;99.90;;;;;;5047229;28;20526;-33
2022/03/31 12:23:20;;;;;;;8.13;6.20;;;0.00;99.90;;;;;;5049542;28;20071;-32
2022/03/31 12:25:46;;;;;;;10.63;6.57;;;0.00;99.90;;;;;;5044249;28;20045;-35
2022/03/31 12:28:12;;;;;;;13.40;6.40;;;0.00;99.90;;;;;;5030322;28;20421;-35
2022/03/31 12:30:47;;;;;;;9.37;6.87;;;-0.10;99.90;;;;;;5049450;28;20040;-33
2022/03/31 12:33:34;;;;;;;10.57;7.23;;;-0.10;99.90;;;;;;5050904;28;20068;-35
2022/03/31 12:36:01;;;;;;;14.00;7.80;;;0.00;99.90;;;;;;5047353;28;20106;-32
2022/03/31 12:38:33;;;;;;;13.07;7.90;;;0.00;99.90;;;;;;5040575;28;20101;-35
2022/03/31 12:40:59;;;;;;;12.97;7.43;;;0.00;99.90;;;;;;5046782;28;20061;-32
2022/03/31 12:43:26;;;;;;;12.90;8.27;;;0.00;99.90;;;;;;5052630;28;21024;-33
2022/03/31 12:45:53;;;;;;;11.63;7.90;;;0.00;99.90;;;;;;5048739;28;20259;-33
2022/03/31 12:48:19;;;;;;;9.90;7.37;;;-0.10;99.90;;;;;;5037360;28;20191;-33
2022/03/31 12:50:45;;;;;;;11.73;7.97;;;0.00;99.90;;;;;;5049357;28;20053;-35
2022/03/31 12:53:11;;;;;;;13.20;7.80;;;0.00;99.90;;;;;;5050702;28;20463;-35
2022/03/31 12:55:41;;;;;;;11.83;7.67;;;0.00;99.90;;;;;;5052071;28;20036;-35
2022/03/31 12:58:08;;;;;;;11.73;8.03;;;0.00;99.90;;;;;;5035995;28;20503;-32
2022/03/31 13:00:34;;;;;;;12.93;8.60;;;0.00;99.90;;;;;;5049839;28;20147;-36
2022/03/31 13:03:01;;;;;;;12.17;8.00;;;0.00;99.90;;;;;;5054313;28;20049;-32